• Join FlightAware (Why Join?)
  • Login
  • US Flag 
04:20AM EDT


 

Airport Tracker/Info


-or-


 

Live Flight TrackerFlight Track Log ✈ BLF1703 ✈ 24-Apr-2013 ✈ EFHK / HEL - EKCH / CPH

Flight Track Log - Related Links

Times and Time Zones

All times are in EDT time to prevent confusion due to time zone crossing. See the BLF1703 flight status page for this flight to view local times or setup timezone preferences in your user account.

Time Position Orientation Groundspeed Altitude Reporting Facility
EDT Latitude Longitude Course Direction KTS MPH feet Rate Location/Type
02:50PM 60.1198 24.2939 240° Southwest  Level Estimated
02:51PM 60.0699 24.1278 239° Southwest  Level Estimated
02:52PM 60.0198 23.9622 239° Southwest  Level Estimated
02:53PM 59.9695 23.7971 239° Southwest  Level Estimated
02:54PM 59.9190 23.6325 239° Southwest  Level Estimated
02:55PM 59.8683 23.4684 238° Southwest  Level Estimated
02:56PM 59.8174 23.3048 238° Southwest  Level Estimated
02:57PM 59.7663 23.1418 238° Southwest  Level Estimated
02:58PM 59.7150 22.9792 238° Southwest  Level Estimated
02:59PM 59.6635 22.8171 238° Southwest  Level Estimated
03:00PM 59.6118 22.6555 238° Southwest  Level Estimated
03:01PM 59.5598 22.4944 238° Southwest  Level Estimated
03:02PM 59.5077 22.3338 237° Southwest  Level Estimated
03:03PM 59.4554 22.1737 237° Southwest  Level Estimated
03:04PM 59.4029 22.0141 237° Southwest  Level Estimated
03:05PM 59.3502 21.8550 237° Southwest  Level Estimated
03:06PM 59.2973 21.6963 237° Southwest  Level Estimated
03:07PM 59.2443 21.5382 237° Southwest  Level Estimated
03:08PM 59.1910 21.3806 237° Southwest  Level Estimated
03:09PM 59.1375 21.2234 236° Southwest  Level Estimated
03:10PM 59.0839 21.0668 236° Southwest  Level Estimated
03:11PM 59.0300 20.9106 236° Southwest  Level Estimated
03:12PM 58.9760 20.7550 236° Southwest  Level Estimated
03:13PM 58.9218 20.5998 236° Southwest  Level Estimated
03:14PM 58.8674 20.4451 236° Southwest  Level Estimated
03:15PM 58.8128 20.2909 236° Southwest  Level Estimated
03:16PM 58.7580 20.1371 236° Southwest  Level Estimated
03:17PM 58.7031 19.9839 235° Southwest  Level Estimated
03:18PM 58.6480 19.8312 235° Southwest  Level Estimated
03:19PM 58.5927 19.6789 235° Southwest  Level Estimated
03:20PM 58.5372 19.5271 235° Southwest  Level Estimated
03:21PM 58.4815 19.3758 235° Southwest  Level Estimated
03:22PM 58.4257 19.2250 235° Southwest  Level Estimated
03:23PM 58.3696 19.0746 235° Southwest  Level Estimated
03:24PM 58.3134 18.9247 235° Southwest  Level Estimated
03:25PM 58.2571 18.7753 234° Southwest  Level Estimated
03:26PM 58.2005 18.6264 234° Southwest  Level Estimated
03:27PM 58.1438 18.4779 234° Southwest  Level Estimated
03:28PM 58.0869 18.3300 234° Southwest  Level Estimated
03:29PM 58.0298 18.1825 234° Southwest  Level Estimated
03:30PM 57.9726 18.0354 234° Southwest  Level Estimated
03:31PM 57.9152 17.8888 234° Southwest  Level Estimated
03:32PM 57.8576 17.7428 234° Southwest  Level Estimated
03:33PM 57.7999 17.5971 233° Southwest  Level Estimated
03:34PM 57.7420 17.4520 233° Southwest  Level Estimated
03:35PM 57.6839 17.3073 233° Southwest  Level Estimated
03:36PM 57.6257 17.1630 233° Southwest  Level Estimated
03:37PM 57.5673 17.0193 233° Southwest  Level Estimated
03:38PM 57.5087 16.8759 233° Southwest  Level Estimated
03:39PM 57.4500 16.7331 233° Southwest  Level Estimated
03:40PM 57.3911 16.5907 233° Southwest  Level Estimated
03:41PM 57.3321 16.4488 232° Southwest  Level Estimated
03:42PM 57.2729 16.3073 232° Southwest  Level Estimated
03:43PM 57.2135 16.1663 232° Southwest  Level Estimated
03:44PM 57.1540 16.0257 232° Southwest  Level Estimated
03:45PM 57.0943 15.8856 232° Southwest  Level Estimated
03:46PM 57.0345 15.7459 232° Southwest  Level Estimated
03:47PM 56.9745 15.6067 232° Southwest  Level Estimated
03:48PM 56.9144 15.4679 232° Southwest  Level Estimated
03:49PM 56.8541 15.3296 231° Southwest  Level Estimated
03:50PM 56.7937 15.1917 231° Southwest  Level Estimated
03:51PM 56.7331 15.0543 231° Southwest  Level Estimated
03:52PM 56.6723 14.9173 231° Southwest  Level Estimated
03:53PM 56.6114 14.7807 231° Southwest  Level Estimated
03:54PM 56.5504 14.6446 231° Southwest  Level Estimated
03:55PM 56.4892 14.5090 231° Southwest  Level Estimated
03:56PM 56.4278 14.3737 231° Southwest  Level Estimated
03:57PM 56.3664 14.2389 231° Southwest  Level Estimated
03:58PM 56.3047 14.1046 230° Southwest  Level Estimated
03:59PM 56.2430 13.9706 230° Southwest  Level Estimated
04:00PM 56.1810 13.8371 230° Southwest  Level Estimated
04:01PM 56.1190 13.7041 230° Southwest  Level Estimated
04:02PM 56.0568 13.5714 230° Southwest  Level Estimated
04:03PM 55.9944 13.4392 230° Southwest  Level Estimated
04:04PM 55.9319 13.3074 230° Southwest  Level Estimated
04:05PM 55.8693 13.1761 230° Southwest  Level Estimated
04:06PM 55.8065 13.0451 230° Southwest  Level Estimated
04:07PM 55.7436 12.9146 229° Southwest  Level Estimated
04:08PM 55.6805 12.7845 229° Southwest  Level Estimated
04:09PM 55.6179 12.6560 229° Southwest  Level Estimated
04:10PM 55.6179 12.6560 159° South  Level Estimated
04:11PM 55.6179 12.6560 159° South  Level Estimated
04:12PM 55.6179 12.6560 159° South  Level Estimated
04:13PM 55.6179 12.6560 159° South  Level Estimated
04:14PM 55.6179 12.6560 159° South  Level Estimated
04:15PM 55.6179 12.6560 159° South  Level Estimated
04:16PM 55.6179 12.6560 159° South  Level Estimated
04:17PM 55.6179 12.6560 159° South  Level Estimated
04:18PM 55.6179 12.6560 159° South  Level Estimated
04:19PM 55.6179 12.6560 159° South  Level Estimated
04:20PM 55.6179 12.6560 159° South  Level Estimated
04:21PM 55.6179 12.6560 159° South  Level Estimated